Terminal Aerodrome Forecast
Issued by NWS Billings, MT

Home | Current Version | Previous Version | Graphics & Text | Print | Product List | Glossary On
Versions: 1 2 3 4 5 6 7 8 9 10 11 12 13 14 15 16 17 18 19 20 21 22 23 24 25 26 27 28
000
FTUS45 KBYZ 241121
TAFMLS
TAF
KMLS 241121Z 2412/2512 03010KT P6SM SCT200
     FM241400 VRB06KT P6SM SCT100
     FM241800 32011KT P6SM VCTS SCT120CB
     FM242100 33012G22KT P6SM VCTS SCT050CB BKN150
     FM250100 35020G29KT P6SM FEW050 BKN150=

USA.gov is the U.S. government's official web portal to all federal, state and local government web resources and services.